Time,TemperatureF,DewpointF,PressureIn,WindDirection,WindDirectionDegrees,WindSpeedMPH,WindSpeedGustMPH,Humidity,HourlyPrecipIn,Conditions,Clouds,dailyrainin,SolarRadiationWatts/m^2,SoftwareType,DateUTC
2013-03-13 00:22:00,13.0,5.0,-100.00,NNE,33,0.0,4.0,69,0.00,,,0.00,0.000000,,2013-03-13 08:22:00,
2013-03-13 00:32:00,13.0,5.0,-100.00,NNE,33,0.0,4.0,69,0.00,,,0.00,0.000000,,2013-03-13 08:32:00,
2013-03-13 00:42:00,13.0,5.0,-100.00,NNE,33,0.0,4.0,69,0.00,,,0.00,0.000000,,2013-03-13 08:42:00,
2013-03-13 00:52:00,13.0,5.0,-100.00,NNE,33,0.0,4.0,69,0.00,,,0.00,0.000000,,2013-03-13 08:52:00,
2013-03-13 01:22:00,11.0,4.0,-100.00,North,7,0.0,4.0,73,0.00,,,0.00,0.000000,,2013-03-13 09:22:00,
2013-03-13 01:32:00,11.0,4.0,-100.00,North,7,0.0,4.0,73,0.00,,,0.00,0.000000,,2013-03-13 09:32:00,
2013-03-13 01:42:00,11.0,4.0,-100.00,North,7,0.0,4.0,73,0.00,,,0.00,0.000000,,2013-03-13 09:42:00,
2013-03-13 01:52:00,11.0,4.0,-100.00,North,7,0.0,4.0,73,0.00,,,0.00,0.000000,,2013-03-13 09:52:00,
2013-03-13 02:22:00,11.0,5.0,-100.00,North,352,1.0,5.0,75,0.00,,,0.00,0.000000,,2013-03-13 10:22:00,
2013-03-13 02:32:00,11.0,5.0,-100.00,North,352,1.0,5.0,75,0.00,,,0.00,0.000000,,2013-03-13 10:32:00,
2013-03-13 02:42:00,11.0,5.0,-100.00,North,352,1.0,5.0,75,0.00,,,0.00,0.000000,,2013-03-13 10:42:00,
2013-03-13 02:52:00,11.0,5.0,-100.00,North,352,1.0,5.0,75,0.00,,,0.00,0.000000,,2013-03-13 10:52:00,
2013-03-13 03:12:00,9.0,4.0,-100.00,ENE,73,0.0,4.0,78,0.00,,,0.00,0.000000,,2013-03-13 11:12:00,
2013-03-13 03:22:00,9.0,4.0,-100.00,ENE,73,0.0,4.0,78,0.00,,,0.00,0.000000,,2013-03-13 11:22:00,
2013-03-13 03:32:00,9.0,4.0,-100.00,ENE,73,0.0,4.0,78,0.00,,,0.00,0.000000,,2013-03-13 11:32:00,
2013-03-13 03:42:00,9.0,4.0,-100.00,ENE,73,0.0,4.0,78,0.00,,,0.00,0.000000,,2013-03-13 11:42:00,
2013-03-13 03:52:00,9.0,4.0,-100.00,ENE,73,0.0,4.0,78,0.00,,,0.00,0.000000,,2013-03-13 11:52:00,
2013-03-13 04:22:00,8.0,4.0,-100.00,North,2,0.0,3.0,83,0.00,,,0.00,0.000000,,2013-03-13 12:22:00,
2013-03-13 04:32:00,8.0,4.0,-100.00,North,2,0.0,3.0,83,0.00,,,0.00,0.000000,,2013-03-13 12:32:00,
2013-03-13 04:42:00,8.0,4.0,-100.00,North,2,0.0,3.0,83,0.00,,,0.00,0.000000,,2013-03-13 12:42:00,
2013-03-13 04:52:00,8.0,4.0,-100.00,North,2,0.0,3.0,83,0.00,,,0.00,0.000000,,2013-03-13 12:52:00,
2013-03-13 05:22:00,7.0,3.0,-100.00,NE,44,0.0,5.0,82,0.00,,,0.00,0.000000,,2013-03-13 13:22:00,
2013-03-13 05:32:00,7.0,3.0,-100.00,NE,44,0.0,5.0,82,0.00,,,0.00,0.000000,,2013-03-13 13:32:00,
2013-03-13 05:42:00,7.0,3.0,-100.00,NE,44,0.0,5.0,82,0.00,,,0.00,0.000000,,2013-03-13 13:42:00,
2013-03-13 05:52:00,7.0,3.0,-100.00,NE,44,0.0,5.0,82,0.00,,,0.00,0.000000,,2013-03-13 13:52:00,
2013-03-13 06:21:00,5.0,0.0,-100.00,North,354,0.0,3.0,81,0.00,,,0.00,0.000000,,2013-03-13 14:21:00,
2013-03-13 06:33:00,5.0,0.0,-100.00,North,354,0.0,3.0,81,0.00,,,0.00,0.000000,,2013-03-13 14:33:00,
2013-03-13 06:42:00,5.0,0.0,-100.00,North,354,0.0,3.0,81,0.00,,,0.00,0.000000,,2013-03-13 14:42:00,
2013-03-13 06:52:00,5.0,0.0,-100.00,North,354,0.0,3.0,81,0.00,,,0.00,0.000000,,2013-03-13 14:52:00,
2013-03-13 07:22:00,4.0,0.0,-100.00,North,3,0.0,1.0,83,0.00,,,0.00,0.000000,,2013-03-13 15:22:00,
2013-03-13 07:32:00,4.0,0.0,-100.00,North,3,0.0,1.0,83,0.00,,,0.00,0.000000,,2013-03-13 15:32:00,
2013-03-13 07:42:00,4.0,0.0,-100.00,North,3,0.0,1.0,83,0.00,,,0.00,0.000000,,2013-03-13 15:42:00,
2013-03-13 07:52:00,4.0,0.0,-100.00,North,3,0.0,1.0,83,0.00,,,0.00,0.000000,,2013-03-13 15:52:00,
2013-03-13 08:22:00,4.0,0.0,-100.00,NE,35,0.0,1.0,82,0.00,,,0.00,0.000000,,2013-03-13 16:22:00,
2013-03-13 08:32:00,4.0,0.0,-100.00,NE,35,0.0,1.0,82,0.00,,,0.00,0.000000,,2013-03-13 16:32:00,
2013-03-13 08:42:00,4.0,0.0,-100.00,NE,35,0.0,1.0,82,0.00,,,0.00,0.000000,,2013-03-13 16:42:00,
2013-03-13 08:52:00,4.0,0.0,-100.00,NE,35,0.0,1.0,82,0.00,,,0.00,0.000000,,2013-03-13 16:52:00,
2013-03-13 09:22:00,4.0,-1.0,-100.00,North,7,0.0,1.0,81,0.00,,,0.00,5.000000,,2013-03-13 17:22:00,
2013-03-13 09:32:00,4.0,-1.0,-100.00,North,7,0.0,1.0,81,0.00,,,0.00,5.000000,,2013-03-13 17:32:00,
2013-03-13 09:42:00,4.0,-1.0,-100.00,North,7,0.0,1.0,81,0.00,,,0.00,5.000000,,2013-03-13 17:42:00,
2013-03-13 09:53:00,4.0,-1.0,-100.00,North,7,0.0,1.0,81,0.00,,,0.00,5.000000,,2013-03-13 17:53:00,
2013-03-13 10:22:00,5.0,0.0,-100.00,NE,41,0.0,2.0,80,0.00,,,0.00,17.000000,,2013-03-13 18:22:00,
2013-03-13 10:33:00,5.0,0.0,-100.00,NE,41,0.0,2.0,80,0.00,,,0.00,17.000000,,2013-03-13 18:33:00,
2013-03-13 10:42:00,5.0,0.0,-100.00,NE,41,0.0,2.0,80,0.00,,,0.00,17.000000,,2013-03-13 18:42:00,
2013-03-13 10:51:00,5.0,0.0,-100.00,NE,41,0.0,2.0,80,0.00,,,0.00,17.000000,,2013-03-13 18:51:00,
2013-03-13 11:22:00,8.0,3.0,-100.00,NNE,22,1.0,4.0,79,0.00,,,0.00,26.000000,,2013-03-13 19:22:00,
2013-03-13 11:32:00,8.0,3.0,-100.00,NNE,22,1.0,4.0,79,0.00,,,0.00,26.000000,,2013-03-13 19:32:00,
2013-03-13 11:42:00,8.0,3.0,-100.00,NNE,22,1.0,4.0,79,0.00,,,0.00,26.000000,,2013-03-13 19:42:00,
2013-03-13 11:52:00,8.0,3.0,-100.00,NNE,22,1.0,4.0,79,0.00,,,0.00,26.000000,,2013-03-13 19:52:00,
2013-03-13 12:22:00,21.0,8.0,-100.00,NNW,337,1.0,4.0,56,-99.99,,,0.00,239.000000,,2013-03-13 20:22:00,
2013-03-13 12:32:00,21.0,8.0,-100.00,NNW,337,1.0,4.0,56,-99.99,,,0.00,239.000000,,2013-03-13 20:32:00,
2013-03-13 12:42:00,21.0,8.0,-100.00,NNW,337,1.0,4.0,56,-99.99,,,0.00,239.000000,,2013-03-13 20:42:00,
2013-03-13 12:52:00,21.0,8.0,-100.00,NNW,337,1.0,4.0,56,-99.99,,,0.00,239.000000,,2013-03-13 20:52:00,
2013-03-13 13:22:00,31.0,10.0,-100.00,SW,234,1.0,4.0,41,0.00,,,0.00,443.000000,,2013-03-13 21:22:00,
2013-03-13 13:32:00,31.0,10.0,-100.00,SW,234,1.0,4.0,41,0.00,,,0.00,443.000000,,2013-03-13 21:32:00,
2013-03-13 13:42:00,31.0,10.0,-100.00,SW,234,1.0,4.0,41,0.00,,,0.00,443.000000,,2013-03-13 21:42:00,
2013-03-13 13:51:00,31.0,10.0,-100.00,SW,234,1.0,4.0,41,0.00,,,0.00,443.000000,,2013-03-13 21:51:00,
2013-03-13 14:22:00,34.0,12.0,-100.00,SW,234,1.0,4.0,39,0.00,,,-99.99,524.000000,,2013-03-13 22:22:00,
2013-03-13 14:32:00,34.0,12.0,-100.00,SW,234,1.0,4.0,39,0.00,,,-99.99,524.000000,,2013-03-13 22:32:00,
2013-03-13 14:42:00,34.0,12.0,-100.00,SW,234,1.0,4.0,39,0.00,,,-99.99,524.000000,,2013-03-13 22:42:00,
2013-03-13 14:52:00,34.0,12.0,-100.00,SW,234,1.0,4.0,39,0.00,,,-99.99,524.000000,,2013-03-13 22:52:00,
2013-03-13 15:22:00,37.0,8.0,-100.00,WSW,256,1.0,4.0,30,0.00,,,0.00,527.000000,,2013-03-13 23:22:00,
2013-03-13 15:32:00,37.0,8.0,-100.00,WSW,256,1.0,4.0,30,0.00,,,0.00,527.000000,,2013-03-13 23:32:00,
2013-03-13 15:42:00,37.0,8.0,-100.00,WSW,256,1.0,4.0,30,0.00,,,0.00,527.000000,,2013-03-13 23:42:00,
2013-03-13 15:51:00,37.0,8.0,-100.00,WSW,256,1.0,4.0,30,0.00,,,0.00,527.000000,,2013-03-13 23:51:00,
2013-03-13 16:22:00,32.0,2.0,-100.00,SW,227,2.0,5.0,27,0.00,,,0.00,412.000000,,2013-03-14 00:22:00,
2013-03-13 16:32:00,32.0,2.0,-100.00,SW,227,2.0,5.0,27,0.00,,,0.00,412.000000,,2013-03-14 00:32:00,
2013-03-13 16:42:00,32.0,2.0,-100.00,SW,227,2.0,5.0,27,0.00,,,0.00,412.000000,,2013-03-14 00:42:00,
2013-03-13 16:52:00,32.0,2.0,-100.00,SW,227,2.0,5.0,27,0.00,,,0.00,412.000000,,2013-03-14 00:52:00,
2013-03-13 17:22:00,34.0,-6.0,-100.00,East,101,2.0,7.0,17,0.00,,,0.00,175.000000,,2013-03-14 01:22:00,
2013-03-13 17:42:00,34.0,-6.0,-100.00,East,101,2.0,7.0,17,0.00,,,0.00,175.000000,,2013-03-14 01:42:00,
2013-03-13 17:52:00,34.0,-6.0,-100.00,East,101,2.0,7.0,17,0.00,,,0.00,175.000000,,2013-03-14 01:52:00,
2013-03-13 18:22:00,30.0,-7.0,-100.00,NE,52,3.0,6.0,19,0.00,,,0.00,179.000000,,2013-03-14 02:22:00,
2013-03-13 19:22:00,28.0,-2.0,-100.00,NNE,28,3.0,11.0,27,0.00,,,0.00,84.000000,,2013-03-14 03:22:00,
2013-03-13 19:32:00,28.0,-2.0,-100.00,NNE,28,3.0,11.0,27,0.00,,,0.00,84.000000,,2013-03-14 03:32:00,
2013-03-13 19:42:00,28.0,-2.0,-100.00,NNE,28,3.0,11.0,27,0.00,,,0.00,84.000000,,2013-03-14 03:42:00,
2013-03-13 19:52:00,28.0,-2.0,-100.00,NNE,28,3.0,11.0,27,0.00,,,0.00,84.000000,,2013-03-14 03:52:00,
2013-03-13 20:22:00,26.0,1.0,-100.00,ENE,64,3.0,9.0,33,0.00,,,0.00,26.000000,,2013-03-14 04:22:00,
2013-03-13 20:32:00,26.0,1.0,-100.00,ENE,64,3.0,9.0,33,0.00,,,0.00,26.000000,,2013-03-14 04:32:00,
2013-03-13 20:42:00,26.0,1.0,-100.00,ENE,64,3.0,9.0,33,0.00,,,0.00,26.000000,,2013-03-14 04:42:00,
2013-03-13 20:52:00,26.0,1.0,-100.00,ENE,64,3.0,9.0,33,0.00,,,0.00,26.000000,,2013-03-14 04:52:00,
2013-03-13 21:22:00,24.0,2.0,-100.00,NNE,22,3.0,10.0,38,0.00,,,0.00,1.000000,,2013-03-14 05:22:00,
2013-03-13 21:33:00,24.0,2.0,-100.00,NNE,22,3.0,10.0,38,0.00,,,0.00,1.000000,,2013-03-14 05:33:00,
2013-03-13 21:42:00,24.0,2.0,-100.00,NNE,22,3.0,10.0,38,0.00,,,0.00,1.000000,,2013-03-14 05:42:00,
2013-03-13 21:52:00,24.0,2.0,-100.00,NNE,22,3.0,10.0,38,0.00,,,0.00,1.000000,,2013-03-14 05:52:00,
2013-03-13 22:22:00,24.0,5.0,-100.00,NNE,24,3.0,7.0,43,0.00,,,0.00,0.000000,,2013-03-14 06:22:00,
2013-03-13 22:32:00,24.0,5.0,-100.00,NNE,24,3.0,7.0,43,0.00,,,0.00,0.000000,,2013-03-14 06:32:00,
2013-03-13 22:42:00,24.0,5.0,-100.00,NNE,24,3.0,7.0,43,0.00,,,0.00,0.000000,,2013-03-14 06:42:00,
2013-03-13 22:52:00,24.0,5.0,-100.00,NNE,24,3.0,7.0,43,0.00,,,0.00,0.000000,,2013-03-14 06:52:00,
2013-03-13 23:22:00,24.0,5.0,-100.00,NE,40,2.0,6.0,43,0.00,,,0.00,0.000000,,2013-03-14 07:22:00,
2013-03-13 23:32:00,24.0,5.0,-100.00,NE,40,2.0,6.0,43,0.00,,,0.00,0.000000,,2013-03-14 07:32:00,
2013-03-13 23:42:00,24.0,5.0,-100.00,NE,40,2.0,6.0,43,0.00,,,0.00,0.000000,,2013-03-14 07:42:00,
2013-03-13 23:52:00,24.0,5.0,-100.00,NE,40,2.0,6.0,43,0.00,,,0.00,0.000000,,2013-03-14 07:52:00,